Dubai Express — VRBN8 — position and weather

sailwx.info

Track history (hours):
 
Tides and Currents Weather Stations Pressure Air Temp Water Temp Dewpoint Dewpoint Depression Visibility Wind Speed Wind Dir Waves Ship Positions

Dubai Express

Last reported at 2017-Sep-20 14:34 UTC. Time now 2017-Sep-26 21:45 UTC.
Position N 26°09' W 079°16'.

Type: Ship (hazmat cat A). MMSI: 477097400.

Date/timePositionNaut miles runAvg speedWind from/ knotsBaromVisibWave heightAir tempDewpointWater temp
2017-Sep-20 14:34N 26°09' W 079°16'1512.5
2017-Sep-20 13:23N 25°56' W 079°24'514.0
2017-Sep-20 13:00N 25°50' W 079°25'1113.9
2017-Sep-20 12:10N 25°39' W 079°26'213.9
2017-Sep-20 12:00N 25°37' W 079°27'714.0
2017-Sep-20 11:30N 25°30' W 079°28'  
2017-Sep-14 07:59N 20°21' W 096°25'1014.7
2017-Sep-14 07:18N 20°12' W 096°20'414.9
2017-Sep-14 07:00N 20°08' W 096°18'815.2
2017-Sep-14 06:30N 20°01' W 096°15'815.3
2017-Sep-14 05:58N 19°53' W 096°13'715.5
2017-Sep-14 05:30N 19°46' W 096°10'816.4
2017-Sep-14 05:00N 19°39' W 096°06'816.4
2017-Sep-14 04:30N 19°31' W 096°03'816.8
2017-Sep-14 04:00N 19°24' W 095°59'815.7
2017-Sep-14 03:30N 19°16' W 095°58'714.0
2017-Sep-14 03:00N 19°11' W 096°04'4 8.3
2017-Sep-14 02:30N 19°12' W 096°08'0 0.7
2017-Sep-14 01:56N 19°13' W 096°08'0 0.0
2017-Sep-14 01:29N 19°13' W 096°08'0 0.0
2017-Sep-14 00:59N 19°13' W 096°08'0 0.0
2017-Sep-14 00:29N 19°13' W 096°08'0 0.0
2017-Sep-13 23:59N 19°13' W 096°08'0 0.0
2017-Sep-13 23:26N 19°13' W 096°08'0 0.0
2017-Sep-13 22:56N 19°13' W 096°08'0 0.0
2017-Sep-13 22:29N 19°13' W 096°08'0 0.0
2017-Sep-13 21:59N 19°13' W 096°08'0 0.0
2017-Sep-13 21:29N 19°13' W 096°08'0 0.0
2017-Sep-13 20:59N 19°13' W 096°08'0 0.0
2017-Sep-13 20:29N 19°13' W 096°08'0 0.0
2017-Sep-13 19:59N 19°13' W 096°08'0 0.0
2017-Sep-13 19:29N 19°13' W 096°08'0 0.0
2017-Sep-13 18:53N 19°13' W 096°08'0 0.0
2017-Sep-13 18:29N 19°13' W 096°08'0 0.0
2017-Sep-13 17:59N 19°13' W 096°08'0 0.0
2017-Sep-13 17:29N 19°13' W 096°08'0 0.0
2017-Sep-13 16:59N 19°13' W 096°08'0 0.0
2017-Sep-13 16:26N 19°13' W 096°08'0 0.0
2017-Sep-13 15:56N 19°13' W 096°08'0 0.0
2017-Sep-13 15:29N 19°13' W 096°08'0 0.0
2017-Sep-13 14:58N 19°13' W 096°08'0 0.0
2017-Sep-13 14:28N 19°13' W 096°08'0 0.0
2017-Sep-13 13:58N 19°13' W 096°08'0 0.0
2017-Sep-13 13:28N 19°13' W 096°08'0 0.0
2017-Sep-13 12:58N 19°13' W 096°08'0 0.0
2017-Sep-13 12:28N 19°13' W 096°08'0 0.0
2017-Sep-13 11:52N 19°13' W 096°08'0 0.0
2017-Sep-13 11:28N 19°13' W 096°08'1 1.9
2017-Sep-13 11:00N 19°12' W 096°07'5 9.2
2017-Sep-13 10:30N 19°12' W 096°02'4 7.4
2017-Sep-13 10:00N 19°14' W 095°59'4 7.8
2017-Sep-13 09:30N 19°14' W 095°55'510.1
2017-Sep-13 09:00N 19°15' W 095°50'611.3
2017-Sep-13 08:30N 19°15' W 095°44'16 3.3
2017-Sep-13 03:40N 19°24' W 095°29'0 2.0
2017-Sep-13 03:29N 19°24' W 095°30'2 0.5
2017-Sep-13 00:14N 19°23' W 095°31'3 6.5
2017-Sep-12 23:49N 19°21' W 095°30'2 6.8
2017-Sep-12 23:30N 19°19' W 095°29'3 6.6
2017-Sep-12 22:59N 19°16' W 095°27'4 6.1
2017-Sep-12 22:23N 19°13' W 095°25'5 1.1
2017-Sep-12 17:23N 19°18' W 095°27'1 2.0
2017-Sep-12 17:00N 19°19' W 095°27'1 2.0
2017-Sep-12 16:30N 19°20' W 095°28'2 1.7
2017-Sep-12 15:37N 19°21' W 095°29'0 1.5
2017-Sep-12 15:30N 19°21' W 095°29'15 1.2
2017-Sep-12 02:49N 19°05' W 095°28'1 0.6
2017-Sep-12 00:56N 19°04' W 095°28'1 1.9
2017-Sep-12 00:30N 19°05' W 095°28'6 0.4
2017-Sep-11 11:40N 18°60' W 095°31'3 1.5
2017-Sep-11 09:58N 19°02' W 095°31'2 3.2
2017-Sep-11 09:30N 19°04' W 095°31'1 2.6
2017-Sep-11 08:59N 19°05' W 095°31'1 2.3
2017-Sep-11 08:30N 19°06' W 095°31'2 2.3
2017-Sep-11 07:41N 19°08' W 095°31'0 2.4
2017-Sep-11 07:30N 19°09' W 095°31'1 2.5
2017-Sep-11 06:56N 19°10' W 095°32'1 2.6
2017-Sep-11 06:30N 19°11' W 095°32'1 2.7
2017-Sep-11 05:58N 19°12' W 095°32'3 2.4
2017-Sep-11 04:45N 19°15' W 095°33'1 2.3
2017-Sep-11 04:17N 19°17' W 095°33'9 1.4
2017-Sep-10 21:55N 19°25' W 095°29'  
Track history (hours):
 
Tides and Currents Weather Stations Pressure Air Temp Water Temp Dewpoint Dewpoint Depression Visibility Wind Speed Wind Dir Waves Ship Positions

Dubai Express

Last reported at 2017-Sep-20 14:34 UTC. Time now 2017-Sep-26 21:45 UTC.
Position N 26°09' W 079°16'.

Type: Ship (hazmat cat A). MMSI: 477097400.

Date/timePositionNaut miles runAvg speedWind from/ knotsBaromVisibWave heightAir tempDewpointWater temp
2017-Sep-20 14:34N 26°09' W 079°16'1512.5
2017-Sep-20 13:23N 25°56' W 079°24'514.0
2017-Sep-20 13:00N 25°50' W 079°25'1113.9
2017-Sep-20 12:10N 25°39' W 079°26'213.9
2017-Sep-20 12:00N 25°37' W 079°27'714.0
2017-Sep-20 11:30N 25°30' W 079°28'  
2017-Sep-14 07:59N 20°21' W 096°25'1014.7
2017-Sep-14 07:18N 20°12' W 096°20'414.9
2017-Sep-14 07:00N 20°08' W 096°18'815.2
2017-Sep-14 06:30N 20°01' W 096°15'815.3
2017-Sep-14 05:58N 19°53' W 096°13'715.5
2017-Sep-14 05:30N 19°46' W 096°10'816.4
2017-Sep-14 05:00N 19°39' W 096°06'816.4
2017-Sep-14 04:30N 19°31' W 096°03'816.8
2017-Sep-14 04:00N 19°24' W 095°59'815.7
2017-Sep-14 03:30N 19°16' W 095°58'714.0
2017-Sep-14 03:00N 19°11' W 096°04'4 8.3
2017-Sep-14 02:30N 19°12' W 096°08'0 0.7
2017-Sep-14 01:56N 19°13' W 096°08'0 0.0
2017-Sep-14 01:29N 19°13' W 096°08'0 0.0
2017-Sep-14 00:59N 19°13' W 096°08'0 0.0
2017-Sep-14 00:29N 19°13' W 096°08'0 0.0
2017-Sep-13 23:59N 19°13' W 096°08'0 0.0
2017-Sep-13 23:26N 19°13' W 096°08'0 0.0
2017-Sep-13 22:56N 19°13' W 096°08'0 0.0
2017-Sep-13 22:29N 19°13' W 096°08'0 0.0
2017-Sep-13 21:59N 19°13' W 096°08'0 0.0
2017-Sep-13 21:29N 19°13' W 096°08'0 0.0
2017-Sep-13 20:59N 19°13' W 096°08'0 0.0
2017-Sep-13 20:29N 19°13' W 096°08'0 0.0
2017-Sep-13 19:59N 19°13' W 096°08'0 0.0
2017-Sep-13 19:29N 19°13' W 096°08'0 0.0
2017-Sep-13 18:53N 19°13' W 096°08'0 0.0
2017-Sep-13 18:29N 19°13' W 096°08'0 0.0
2017-Sep-13 17:59N 19°13' W 096°08'0 0.0
2017-Sep-13 17:29N 19°13' W 096°08'0 0.0
2017-Sep-13 16:59N 19°13' W 096°08'0 0.0
2017-Sep-13 16:26N 19°13' W 096°08'0 0.0
2017-Sep-13 15:56N 19°13' W 096°08'0 0.0
2017-Sep-13 15:29N 19°13' W 096°08'0 0.0
2017-Sep-13 14:58N 19°13' W 096°08'0 0.0
2017-Sep-13 14:28N 19°13' W 096°08'0 0.0
2017-Sep-13 13:58N 19°13' W 096°08'0 0.0
2017-Sep-13 13:28N 19°13' W 096°08'0 0.0
2017-Sep-13 12:58N 19°13' W 096°08'0 0.0
2017-Sep-13 12:28N 19°13' W 096°08'0 0.0
2017-Sep-13 11:52N 19°13' W 096°08'0 0.0
2017-Sep-13 11:28N 19°13' W 096°08'1 1.9
2017-Sep-13 11:00N 19°12' W 096°07'5 9.2
2017-Sep-13 10:30N 19°12' W 096°02'4 7.4
2017-Sep-13 10:00N 19°14' W 095°59'4 7.8
2017-Sep-13 09:30N 19°14' W 095°55'510.1
2017-Sep-13 09:00N 19°15' W 095°50'611.3
2017-Sep-13 08:30N 19°15' W 095°44'16 3.3
2017-Sep-13 03:40N 19°24' W 095°29'0 2.0
2017-Sep-13 03:29N 19°24' W 095°30'2 0.5
2017-Sep-13 00:14N 19°23' W 095°31'3 6.5
2017-Sep-12 23:49N 19°21' W 095°30'2 6.8
2017-Sep-12 23:30N 19°19' W 095°29'3 6.6
2017-Sep-12 22:59N 19°16' W 095°27'4 6.1
2017-Sep-12 22:23N 19°13' W 095°25'5 1.1
2017-Sep-12 17:23N 19°18' W 095°27'1 2.0
2017-Sep-12 17:00N 19°19' W 095°27'1 2.0
2017-Sep-12 16:30N 19°20' W 095°28'2 1.7
2017-Sep-12 15:37N 19°21' W 095°29'0 1.5
2017-Sep-12 15:30N 19°21' W 095°29'15 1.2
2017-Sep-12 02:49N 19°05' W 095°28'1 0.6
2017-Sep-12 00:56N 19°04' W 095°28'1 1.9
2017-Sep-12 00:30N 19°05' W 095°28'6 0.4
2017-Sep-11 11:40N 18°60' W 095°31'3 1.5
2017-Sep-11 09:58N 19°02' W 095°31'2 3.2
2017-Sep-11 09:30N 19°04' W 095°31'1 2.6
2017-Sep-11 08:59N 19°05' W 095°31'1 2.3
2017-Sep-11 08:30N 19°06' W 095°31'2 2.3
2017-Sep-11 07:41N 19°08' W 095°31'0 2.4
2017-Sep-11 07:30N 19°09' W 095°31'1 2.5
2017-Sep-11 06:56N 19°10' W 095°32'1 2.6
2017-Sep-11 06:30N 19°11' W 095°32'1 2.7
2017-Sep-11 05:58N 19°12' W 095°32'3 2.4
2017-Sep-11 04:45N 19°15' W 095°33'1 2.3
2017-Sep-11 04:17N 19°17' W 095°33'9 1.4
2017-Sep-10 21:55N 19°25' W 095°29'  

Dump ship's entire track history